sensor_id;sensor_type;location;lat;lon;timestamp;pressure;altitude;pressure_sealevel;temperature;humidity
27425;BME280;15244;49.088;11.886;2023-03-22T00:02:25;95617.19;;;14.62;45.25
27425;BME280;15244;49.088;11.886;2023-03-22T00:07:28;95625.81;;;14.60;45.27
27425;BME280;15244;49.088;11.886;2023-03-22T00:12:30;95612.84;;;14.61;45.16
27425;BME280;15244;49.088;11.886;2023-03-22T00:17:34;95620.28;;;14.64;45.29
27425;BME280;15244;49.088;11.886;2023-03-22T00:22:41;95617.88;;;14.66;45.18
27425;BME280;15244;49.088;11.886;2023-03-22T00:27:45;95605.31;;;14.68;45.26
27425;BME280;15244;49.088;11.886;2023-03-22T00:32:47;95615.47;;;14.71;44.94
27425;BME280;15244;49.088;11.886;2023-03-22T00:37:51;95611.16;;;14.70;45.07
27425;BME280;15244;49.088;11.886;2023-03-22T00:42:56;95606.09;;;14.69;45.09
27425;BME280;15244;49.088;11.886;2023-03-22T00:48:00;95606.50;;;14.67;44.86
27425;BME280;15244;49.088;11.886;2023-03-22T00:53:07;95594.00;;;14.66;45.16
27425;BME280;15244;49.088;11.886;2023-03-22T00:58:24;95593.56;;;14.68;45.19
27425;BME280;15244;49.088;11.886;2023-03-22T01:03:28;95590.03;;;14.67;45.27
27425;BME280;15244;49.088;11.886;2023-03-22T01:08:31;95587.31;;;14.67;45.44
27425;BME280;15244;49.088;11.886;2023-03-22T01:13:36;95583.41;;;14.65;45.87
27425;BME280;15244;49.088;11.886;2023-03-22T01:18:38;95578.75;;;14.62;45.92
27425;BME280;15244;49.088;11.886;2023-03-22T01:23:42;95567.41;;;14.60;46.00
27425;BME280;15244;49.088;11.886;2023-03-22T01:28:46;95569.44;;;14.56;45.70
27425;BME280;15244;49.088;11.886;2023-03-22T01:33:47;95572.59;;;14.50;45.84
27425;BME280;15244;49.088;11.886;2023-03-22T01:38:49;95567.56;;;14.45;45.88
27425;BME280;15244;49.088;11.886;2023-03-22T01:44:09;95566.13;;;14.37;45.77
27425;BME280;15244;49.088;11.886;2023-03-22T01:49:22;95570.16;;;14.29;45.55
27425;BME280;15244;49.088;11.886;2023-03-22T01:54:34;95562.38;;;14.24;45.81
27425;BME280;15244;49.088;11.886;2023-03-22T01:59:52;95557.72;;;14.21;46.25
27425;BME280;15244;49.088;11.886;2023-03-22T02:05:14;95548.34;;;14.18;46.24
27425;BME280;15244;49.088;11.886;2023-03-22T02:10:25;95550.34;;;14.14;46.30
27425;BME280;15244;49.088;11.886;2023-03-22T02:15:39;95541.75;;;14.12;46.39
27425;BME280;15244;49.088;11.886;2023-03-22T02:37:37;95528.13;;;14.05;46.70
27425;BME280;15244;49.088;11.886;2023-03-22T02:42:56;95527.81;;;13.99;46.91
27425;BME280;15244;49.088;11.886;2023-03-22T02:48:08;95533.00;;;13.94;46.89
27425;BME280;15244;49.088;11.886;2023-03-22T02:53:25;95522.84;;;13.91;47.15
27425;BME280;15244;49.088;11.886;2023-03-22T02:58:41;95517.78;;;13.89;47.14
27425;BME280;15244;49.088;11.886;2023-03-22T03:03:50;95531.91;;;13.87;47.21
27425;BME280;15244;49.088;11.886;2023-03-22T03:08:54;95530.75;;;13.85;47.26
27425;BME280;15244;49.088;11.886;2023-03-22T03:13:59;95528.81;;;13.82;47.38
27425;BME280;15244;49.088;11.886;2023-03-22T03:19:17;95532.00;;;13.77;47.25
27425;BME280;15244;49.088;11.886;2023-03-22T03:24:43;95527.34;;;13.74;47.35
27425;BME280;15244;49.088;11.886;2023-03-22T03:29:55;95524.66;;;13.70;47.49
27425;BME280;15244;49.088;11.886;2023-03-22T03:35:13;95521.56;;;13.64;47.39
27425;BME280;15244;49.088;11.886;2023-03-22T03:40:29;95518.13;;;13.57;47.15
27425;BME280;15244;49.088;11.886;2023-03-22T03:45:37;95524.84;;;13.52;47.19
27425;BME280;15244;49.088;11.886;2023-03-22T03:50:40;95524.50;;;13.47;47.20
27425;BME280;15244;49.088;11.886;2023-03-22T03:55:44;95524.22;;;13.37;47.15
27425;BME280;15244;49.088;11.886;2023-03-22T04:00:47;95526.59;;;13.32;47.07
27425;BME280;15244;49.088;11.886;2023-03-22T04:06:09;95525.84;;;13.24;47.24
27425;BME280;15244;49.088;11.886;2023-03-22T04:11:21;95529.41;;;13.21;47.43
27425;BME280;15244;49.088;11.886;2023-03-22T04:16:27;95531.81;;;13.15;47.38
27425;BME280;15244;49.088;11.886;2023-03-22T04:21:31;95540.06;;;13.12;47.28
27425;BME280;15244;49.088;11.886;2023-03-22T04:26:35;95536.97;;;13.06;47.57
27425;BME280;15244;49.088;11.886;2023-03-22T04:31:46;95528.84;;;12.99;47.97
27425;BME280;15244;49.088;11.886;2023-03-22T04:37:06;95521.06;;;12.94;47.78
27425;BME280;15244;49.088;11.886;2023-03-22T04:42:20;95516.03;;;12.89;47.64
27425;BME280;15244;49.088;11.886;2023-03-22T04:47:31;95523.47;;;12.85;47.85
27425;BME280;15244;49.088;11.886;2023-03-22T04:52:41;95524.66;;;12.80;47.93
27425;BME280;15244;49.088;11.886;2023-03-22T04:57:47;95526.28;;;12.74;47.99
27425;BME280;15244;49.088;11.886;2023-03-22T05:02:49;95522.41;;;12.68;47.94
27425;BME280;15244;49.088;11.886;2023-03-22T05:08:12;95511.13;;;12.62;48.01
27425;BME280;15244;49.088;11.886;2023-03-22T05:13:18;95509.59;;;12.57;48.32
27425;BME280;15244;49.088;11.886;2023-03-22T05:18:22;95515.09;;;12.54;48.33
27425;BME280;15244;49.088;11.886;2023-03-22T05:23:28;95517.06;;;12.50;48.48
27425;BME280;15244;49.088;11.886;2023-03-22T05:28:33;95527.25;;;12.46;48.19
27425;BME280;15244;49.088;11.886;2023-03-22T05:33:44;95522.56;;;12.43;48.61
27425;BME280;15244;49.088;11.886;2023-03-22T05:38:49;95534.69;;;12.42;48.77
27425;BME280;15244;49.088;11.886;2023-03-22T05:43:54;95531.19;;;12.41;48.95
27425;BME280;15244;49.088;11.886;2023-03-22T05:48:58;95528.03;;;12.43;48.90
27425;BME280;15244;49.088;11.886;2023-03-22T05:53:59;95530.38;;;12.44;49.48
27425;BME280;15244;49.088;11.886;2023-03-22T05:59:09;95528.03;;;12.46;49.47
27425;BME280;15244;49.088;11.886;2023-03-22T06:04:13;95533.47;;;12.50;49.22
27425;BME280;15244;49.088;11.886;2023-03-22T06:09:24;95535.78;;;12.55;49.73
27425;BME280;15244;49.088;11.886;2023-03-22T06:14:27;95529.50;;;12.58;49.29
27425;BME280;15244;49.088;11.886;2023-03-22T06:19:41;95533.41;;;12.61;49.72
27425;BME280;15244;49.088;11.886;2023-03-22T06:24:44;95536.13;;;12.64;49.73
27425;BME280;15244;49.088;11.886;2023-03-22T06:29:54;95532.59;;;12.67;50.02
27425;BME280;15244;49.088;11.886;2023-03-22T06:34:59;95538.44;;;12.69;49.86
27425;BME280;15244;49.088;11.886;2023-03-22T06:40:01;95542.31;;;12.72;49.96
27425;BME280;15244;49.088;11.886;2023-03-22T06:45:05;95540.34;;;12.72;50.14
27425;BME280;15244;49.088;11.886;2023-03-22T06:50:12;95541.47;;;12.78;49.87
27425;BME280;15244;49.088;11.886;2023-03-22T06:55:44;95540.28;;;12.83;49.98
27425;BME280;15244;49.088;11.886;2023-03-22T07:00:54;95541.81;;;12.88;50.24
27425;BME280;15244;49.088;11.886;2023-03-22T07:06:03;95549.97;;;12.95;50.29
27425;BME280;15244;49.088;11.886;2023-03-22T07:11:10;95544.06;;;13.00;50.05
27425;BME280;15244;49.088;11.886;2023-03-22T07:16:15;95548.34;;;13.05;50.14
27425;BME280;15244;49.088;11.886;2023-03-22T07:21:25;95544.75;;;13.11;50.04
27425;BME280;15244;49.088;11.886;2023-03-22T07:26:32;95537.66;;;13.17;49.91
27425;BME280;15244;49.088;11.886;2023-03-22T07:31:35;95546.59;;;13.25;50.12
27425;BME280;15244;49.088;11.886;2023-03-22T07:36:43;95548.09;;;13.37;50.13
27425;BME280;15244;49.088;11.886;2023-03-22T07:41:45;95541.72;;;13.47;50.06
27425;BME280;15244;49.088;11.886;2023-03-22T07:46:49;95543.91;;;13.59;49.82
27425;BME280;15244;49.088;11.886;2023-03-22T07:52:04;95552.41;;;13.72;49.90
27425;BME280;15244;49.088;11.886;2023-03-22T07:57:08;95554.63;;;13.84;49.86
27425;BME280;15244;49.088;11.886;2023-03-22T08:02:18;95535.66;;;13.97;49.77
27425;BME280;15244;49.088;11.886;2023-03-22T08:07:26;95546.47;;;14.12;49.67
27425;BME280;15244;49.088;11.886;2023-03-22T08:12:30;95544.72;;;14.25;49.47
27425;BME280;15244;49.088;11.886;2023-03-22T08:17:41;95543.78;;;14.39;49.17
27425;BME280;15244;49.088;11.886;2023-03-22T08:22:57;95549.13;;;14.49;49.06
27425;BME280;15244;49.088;11.886;2023-03-22T08:28:34;95547.47;;;14.56;48.93
27425;BME280;15244;49.088;11.886;2023-03-22T08:33:36;95545.75;;;14.69;49.22
27425;BME280;15244;49.088;11.886;2023-03-22T08:38:43;95542.84;;;14.80;49.17
27425;BME280;15244;49.088;11.886;2023-03-22T08:43:59;95539.50;;;14.92;48.80
27425;BME280;15244;49.088;11.886;2023-03-22T08:49:04;95546.44;;;15.00;48.29
27425;BME280;15244;49.088;11.886;2023-03-22T08:54:11;95540.00;;;15.10;48.07
27425;BME280;15244;49.088;11.886;2023-03-22T08:59:44;95533.13;;;15.22;47.77
27425;BME280;15244;49.088;11.886;2023-03-22T09:04:58;95532.94;;;15.33;47.61
27425;BME280;15244;49.088;11.886;2023-03-22T09:10:04;95528.88;;;15.41;46.74
27425;BME280;15244;49.088;11.886;2023-03-22T09:15:09;95515.03;;;15.48;46.47
27425;BME280;15244;49.088;11.886;2023-03-22T09:20:14;95510.44;;;15.61;46.40
27425;BME280;15244;49.088;11.886;2023-03-22T09:25:19;95519.31;;;15.73;45.93
27425;BME280;15244;49.088;11.886;2023-03-22T09:30:23;95512.47;;;15.81;45.55
27425;BME280;15244;49.088;11.886;2023-03-22T09:35:25;95513.09;;;15.89;44.87
27425;BME280;15244;49.088;11.886;2023-03-22T09:40:36;95504.38;;;15.94;44.46
27425;BME280;15244;49.088;11.886;2023-03-22T09:45:46;95493.13;;;16.04;44.21
27425;BME280;15244;49.088;11.886;2023-03-22T09:50:51;95500.75;;;16.17;44.24
27425;BME280;15244;49.088;11.886;2023-03-22T10:06:45;95480.41;;;16.31;43.25
27425;BME280;15244;49.088;11.886;2023-03-22T10:12:14;95475.84;;;16.40;43.47
27425;BME280;15244;49.088;11.886;2023-03-22T10:17:25;95479.22;;;16.48;42.98
27425;BME280;15244;49.088;11.886;2023-03-22T10:22:34;95476.56;;;16.61;43.18
27425;BME280;15244;49.088;11.886;2023-03-22T10:27:38;95475.47;;;16.75;43.38
27425;BME280;15244;49.088;11.886;2023-03-22T10:33:13;95475.34;;;16.82;42.44
27425;BME280;15244;49.088;11.886;2023-03-22T10:38:24;95473.53;;;16.92;42.43
27425;BME280;15244;49.088;11.886;2023-03-22T10:43:37;95470.94;;;17.01;42.69
27425;BME280;15244;49.088;11.886;2023-03-22T10:48:48;95469.53;;;17.09;42.66
27425;BME280;15244;49.088;11.886;2023-03-22T10:53:52;95459.03;;;17.20;42.25
27425;BME280;15244;49.088;11.886;2023-03-22T10:58:57;95468.75;;;17.25;41.92
27425;BME280;15244;49.088;11.886;2023-03-22T11:04:06;95462.63;;;17.33;41.80
27425;BME280;15244;49.088;11.886;2023-03-22T11:09:20;95445.72;;;17.48;41.66
27425;BME280;15244;49.088;11.886;2023-03-22T11:14:30;95449.69;;;17.60;41.72
27425;BME280;15244;49.088;11.886;2023-03-22T11:19:37;95447.78;;;17.73;41.37
27425;BME280;15244;49.088;11.886;2023-03-22T11:24:39;95433.13;;;17.76;39.67
27425;BME280;15244;49.088;11.886;2023-03-22T11:29:44;95441.22;;;17.83;39.83
27425;BME280;15244;49.088;11.886;2023-03-22T11:34:58;95421.25;;;17.92;39.75
27425;BME280;15244;49.088;11.886;2023-03-22T11:40:00;95417.06;;;18.00;39.20
27425;BME280;15244;49.088;11.886;2023-03-22T11:45:08;95414.00;;;18.11;39.76
27425;BME280;15244;49.088;11.886;2023-03-22T11:50:22;95403.75;;;18.24;40.05
27425;BME280;15244;49.088;11.886;2023-03-22T11:55:28;95408.16;;;18.34;39.05
27425;BME280;15244;49.088;11.886;2023-03-22T12:00:38;95393.94;;;18.36;38.79
27425;BME280;15244;49.088;11.886;2023-03-22T12:05:42;95387.94;;;18.50;38.67
27425;BME280;15244;49.088;11.886;2023-03-22T12:10:48;95377.97;;;18.66;39.14
27425;BME280;15244;49.088;11.886;2023-03-22T12:15:58;95370.34;;;18.82;38.76
27425;BME280;15244;49.088;11.886;2023-03-22T12:21:01;95360.84;;;18.83;38.05
27425;BME280;15244;49.088;11.886;2023-03-22T12:31:22;95354.69;;;19.01;37.50
27425;BME280;15244;49.088;11.886;2023-03-22T12:36:38;95347.97;;;19.02;37.27
27425;BME280;15244;49.088;11.886;2023-03-22T12:41:54;95341.53;;;19.05;37.32
27425;BME280;15244;49.088;11.886;2023-03-22T12:46:59;95343.22;;;19.03;36.23
27425;BME280;15244;49.088;11.886;2023-03-22T12:52:26;95329.31;;;18.94;36.35
27425;BME280;15244;49.088;11.886;2023-03-22T12:57:44;95336.91;;;19.02;36.65
27425;BME280;15244;49.088;11.886;2023-03-22T13:03:00;95333.91;;;19.10;36.72
27425;BME280;15244;49.088;11.886;2023-03-22T13:08:04;95326.31;;;19.23;37.02
27425;BME280;15244;49.088;11.886;2023-03-22T13:29:24;95341.59;;;19.59;36.31
27425;BME280;15244;49.088;11.886;2023-03-22T13:34:43;95330.28;;;19.66;35.66
27425;BME280;15244;49.088;11.886;2023-03-22T13:39:49;95308.38;;;19.72;35.31
27425;BME280;15244;49.088;11.886;2023-03-22T13:44:58;95311.13;;;19.72;35.42
27425;BME280;15244;49.088;11.886;2023-03-22T13:50:37;95299.69;;;19.60;34.34
27425;BME280;15244;49.088;11.886;2023-03-22T14:00:42;95284.44;;;19.56;34.65
27425;BME280;15244;49.088;11.886;2023-03-22T14:05:59;95292.69;;;19.68;35.27
27425;BME280;15244;49.088;11.886;2023-03-22T14:11:28;95290.84;;;19.75;35.10
27425;BME280;15244;49.088;11.886;2023-03-22T14:16:41;95285.38;;;19.62;33.97
27425;BME280;15244;49.088;11.886;2023-03-22T14:21:48;95280.84;;;19.68;34.31
27425;BME280;15244;49.088;11.886;2023-03-22T14:26:56;95273.66;;;19.70;34.08
27425;BME280;15244;49.088;11.886;2023-03-22T14:32:01;95280.25;;;19.73;33.99
27425;BME280;15244;49.088;11.886;2023-03-22T14:37:04;95275.06;;;19.75;33.98
27425;BME280;15244;49.088;11.886;2023-03-22T14:42:23;95267.19;;;19.74;33.78
27425;BME280;15244;49.088;11.886;2023-03-22T14:47:29;95271.38;;;19.78;33.03
27425;BME280;15244;49.088;11.886;2023-03-22T14:52:34;95270.56;;;19.68;32.51
27425;BME280;15244;49.088;11.886;2023-03-22T14:57:42;95271.97;;;19.73;32.83
27425;BME280;15244;49.088;11.886;2023-03-22T15:08:04;95271.59;;;19.93;32.93
27425;BME280;15244;49.088;11.886;2023-03-22T15:13:07;95251.19;;;20.09;32.98
27425;BME280;15244;49.088;11.886;2023-03-22T15:18:16;95255.19;;;20.17;32.67
27425;BME280;15244;49.088;11.886;2023-03-22T15:23:33;95249.22;;;20.28;32.69
27425;BME280;15244;49.088;11.886;2023-03-22T15:28:57;95246.94;;;20.45;32.72
27425;BME280;15244;49.088;11.886;2023-03-22T15:34:06;95242.22;;;20.54;32.31
27425;BME280;15244;49.088;11.886;2023-03-22T15:39:36;95237.91;;;20.63;32.45
27425;BME280;15244;49.088;11.886;2023-03-22T15:44:37;95240.53;;;20.66;31.97
27425;BME280;15244;49.088;11.886;2023-03-22T15:49:47;95245.16;;;20.69;31.92
27425;BME280;15244;49.088;11.886;2023-03-22T16:05:11;95234.47;;;20.40;32.19
27425;BME280;15244;49.088;11.886;2023-03-22T16:10:17;95236.91;;;20.38;32.01
27425;BME280;15244;49.088;11.886;2023-03-22T16:15:32;95244.78;;;20.40;32.24
27425;BME280;15244;49.088;11.886;2023-03-22T16:20:33;95243.41;;;20.44;32.17
27425;BME280;15244;49.088;11.886;2023-03-22T16:25:33;95245.09;;;20.42;31.87
27425;BME280;15244;49.088;11.886;2023-03-22T16:30:40;95242.94;;;20.37;31.98
27425;BME280;15244;49.088;11.886;2023-03-22T16:35:44;95239.41;;;20.36;32.18
27425;BME280;15244;49.088;11.886;2023-03-22T16:40:50;95237.41;;;20.37;32.11
27425;BME280;15244;49.088;11.886;2023-03-22T16:45:51;95244.94;;;20.36;32.20
27425;BME280;15244;49.088;11.886;2023-03-22T16:50:54;95235.06;;;20.35;32.34
27425;BME280;15244;49.088;11.886;2023-03-22T16:55:57;95238.59;;;20.35;32.11
27425;BME280;15244;49.088;11.886;2023-03-22T17:01:03;95246.63;;;20.33;31.82
27425;BME280;15244;49.088;11.886;2023-03-22T17:06:14;95251.22;;;20.27;31.91
27425;BME280;15244;49.088;11.886;2023-03-22T17:11:25;95251.22;;;20.18;31.77
27425;BME280;15244;49.088;11.886;2023-03-22T17:16:28;95249.94;;;20.10;31.54
27425;BME280;15244;49.088;11.886;2023-03-22T17:21:36;95249.16;;;20.00;32.11
27425;BME280;15244;49.088;11.886;2023-03-22T17:26:37;95251.75;;;19.85;31.90
27425;BME280;15244;49.088;11.886;2023-03-22T17:31:37;95251.84;;;19.73;32.09
27425;BME280;15244;49.088;11.886;2023-03-22T17:36:38;95252.69;;;19.60;32.21
27425;BME280;15244;49.088;11.886;2023-03-22T17:41:39;95252.78;;;19.47;32.25
27425;BME280;15244;49.088;11.886;2023-03-22T17:46:39;95267.88;;;19.34;32.71
27425;BME280;15244;49.088;11.886;2023-03-22T17:51:42;95270.88;;;19.17;32.68
27425;BME280;15244;49.088;11.886;2023-03-22T17:56:45;95263.53;;;19.01;32.70
27425;BME280;15244;49.088;11.886;2023-03-22T18:01:46;95265.94;;;18.90;32.94
27425;BME280;15244;49.088;11.886;2023-03-22T18:06:49;95265.97;;;18.77;32.93
27425;BME280;15244;49.088;11.886;2023-03-22T18:11:50;95269.84;;;18.67;32.83
27425;BME280;15244;49.088;11.886;2023-03-22T18:16:50;95285.56;;;18.57;33.06
27425;BME280;15244;49.088;11.886;2023-03-22T18:21:56;95287.47;;;18.48;33.33
27425;BME280;15244;49.088;11.886;2023-03-22T18:26:58;95295.22;;;18.40;33.39
27425;BME280;15244;49.088;11.886;2023-03-22T18:32:01;95286.88;;;18.31;33.45
27425;BME280;15244;49.088;11.886;2023-03-22T18:37:03;95285.66;;;18.19;33.40
27425;BME280;15244;49.088;11.886;2023-03-22T18:42:07;95283.25;;;18.08;33.72
27425;BME280;15244;49.088;11.886;2023-03-22T18:47:08;95288.66;;;17.99;33.79
27425;BME280;15244;49.088;11.886;2023-03-22T18:52:09;95296.38;;;17.91;34.21
27425;BME280;15244;49.088;11.886;2023-03-22T18:57:09;95293.50;;;17.82;34.43
27425;BME280;15244;49.088;11.886;2023-03-22T19:02:10;95294.59;;;17.72;34.33
27425;BME280;15244;49.088;11.886;2023-03-22T19:07:19;95290.16;;;17.62;34.51
27425;BME280;15244;49.088;11.886;2023-03-22T19:12:20;95285.75;;;17.51;34.42
27425;BME280;15244;49.088;11.886;2023-03-22T19:17:25;95298.63;;;17.42;34.85
27425;BME280;15244;49.088;11.886;2023-03-22T19:22:32;95293.78;;;17.33;34.67
27425;BME280;15244;49.088;11.886;2023-03-22T19:27:33;95290.47;;;17.25;34.83
27425;BME280;15244;49.088;11.886;2023-03-22T19:32:34;95283.63;;;17.17;34.97
27425;BME280;15244;49.088;11.886;2023-03-22T19:37:44;95299.13;;;17.11;35.16
27425;BME280;15244;49.088;11.886;2023-03-22T19:42:44;95283.91;;;17.06;35.40
27425;BME280;15244;49.088;11.886;2023-03-22T19:47:45;95283.66;;;17.01;35.37
27425;BME280;15244;49.088;11.886;2023-03-22T19:52:51;95287.50;;;16.90;35.62
27425;BME280;15244;49.088;11.886;2023-03-22T19:57:51;95286.50;;;16.84;35.79
27425;BME280;15244;49.088;11.886;2023-03-22T20:02:52;95292.94;;;16.78;35.86
27425;BME280;15244;49.088;11.886;2023-03-22T20:07:53;95285.97;;;16.73;35.66
27425;BME280;15244;49.088;11.886;2023-03-22T20:12:58;95287.72;;;16.67;36.05
27425;BME280;15244;49.088;11.886;2023-03-22T20:17:58;95288.66;;;16.60;35.99
27425;BME280;15244;49.088;11.886;2023-03-22T20:23:01;95293.50;;;16.56;36.28
27425;BME280;15244;49.088;11.886;2023-03-22T20:28:02;95284.56;;;16.52;36.10
27425;BME280;15244;49.088;11.886;2023-03-22T20:33:02;95283.09;;;16.47;36.48
27425;BME280;15244;49.088;11.886;2023-03-22T20:38:03;95285.59;;;16.42;36.45
27425;BME280;15244;49.088;11.886;2023-03-22T20:43:04;95287.66;;;16.38;36.45
27425;BME280;15244;49.088;11.886;2023-03-22T20:48:05;95297.66;;;16.32;36.21
27425;BME280;15244;49.088;11.886;2023-03-22T20:53:08;95294.66;;;16.26;36.59
27425;BME280;15244;49.088;11.886;2023-03-22T20:58:09;95293.97;;;16.22;36.94
27425;BME280;15244;49.088;11.886;2023-03-22T21:03:13;95285.47;;;16.16;37.10
27425;BME280;15244;49.088;11.886;2023-03-22T21:08:18;95295.75;;;16.12;37.06
27425;BME280;15244;49.088;11.886;2023-03-22T21:13:19;95303.34;;;16.08;37.28
27425;BME280;15244;49.088;11.886;2023-03-22T21:18:20;95304.53;;;16.07;37.40
27425;BME280;15244;49.088;11.886;2023-03-22T21:23:21;95294.28;;;16.08;37.28
27425;BME280;15244;49.088;11.886;2023-03-22T21:28:25;95295.16;;;16.04;37.32
27425;BME280;15244;49.088;11.886;2023-03-22T21:33:26;95289.75;;;16.01;37.43
27425;BME280;15244;49.088;11.886;2023-03-22T21:38:27;95287.88;;;15.98;37.75
27425;BME280;15244;49.088;11.886;2023-03-22T21:43:35;95287.94;;;15.94;37.63
27425;BME280;15244;49.088;11.886;2023-03-22T21:48:38;95280.13;;;15.93;37.55
27425;BME280;15244;49.088;11.886;2023-03-22T21:53:43;95273.84;;;15.92;37.57
27425;BME280;15244;49.088;11.886;2023-03-22T21:58:48;95277.03;;;15.91;37.94
27425;BME280;15244;49.088;11.886;2023-03-22T22:03:51;95280.56;;;15.91;37.82
27425;BME280;15244;49.088;11.886;2023-03-22T22:08:54;95274.34;;;15.87;37.85
27425;BME280;15244;49.088;11.886;2023-03-22T22:13:55;95269.72;;;15.84;37.76
27425;BME280;15244;49.088;11.886;2023-03-22T22:18:58;95269.38;;;15.82;37.69
27425;BME280;15244;49.088;11.886;2023-03-22T22:23:59;95274.19;;;15.78;38.30
27425;BME280;15244;49.088;11.886;2023-03-22T22:29:00;95267.59;;;15.75;38.09
27425;BME280;15244;49.088;11.886;2023-03-22T22:34:05;95264.13;;;15.71;38.15
27425;BME280;15244;49.088;11.886;2023-03-22T22:39:05;95270.47;;;15.68;38.28
27425;BME280;15244;49.088;11.886;2023-03-22T22:44:10;95266.25;;;15.64;38.31
27425;BME280;15244;49.088;11.886;2023-03-22T22:49:10;95259.28;;;15.59;38.71
27425;BME280;15244;49.088;11.886;2023-03-22T22:54:11;95255.84;;;15.55;38.82
27425;BME280;15244;49.088;11.886;2023-03-22T22:59:14;95263.38;;;15.51;38.95
27425;BME280;15244;49.088;11.886;2023-03-22T23:04:17;95272.50;;;15.48;38.89
27425;BME280;15244;49.088;11.886;2023-03-22T23:09:21;95269.03;;;15.44;38.93
27425;BME280;15244;49.088;11.886;2023-03-22T23:14:26;95267.16;;;15.41;39.09
27425;BME280;15244;49.088;11.886;2023-03-22T23:19:35;95267.66;;;15.35;39.04
27425;BME280;15244;49.088;11.886;2023-03-22T23:24:37;95270.13;;;15.30;39.18
27425;BME280;15244;49.088;11.886;2023-03-22T23:29:37;95278.06;;;15.24;39.33
27425;BME280;15244;49.088;11.886;2023-03-22T23:34:43;95279.69;;;15.22;39.39
27425;BME280;15244;49.088;11.886;2023-03-22T23:39:46;95279.44;;;15.16;39.89
27425;BME280;15244;49.088;11.886;2023-03-22T23:44:49;95282.69;;;15.11;39.79
27425;BME280;15244;49.088;11.886;2023-03-22T23:49:51;95276.06;;;15.08;39.58
27425;BME280;15244;49.088;11.886;2023-03-22T23:54:52;95280.50;;;15.02;39.85
27425;BME280;15244;49.088;11.886;2023-03-22T23:59:54;95273.91;;;15.00;39.79
